sensor_id;sensor_type;location;lat;lon;timestamp;pressure;altitude;pressure_sealevel;temperature;humidity
6034;BME280;3045;43.226;27.858;2022-12-18T00:00:13;146901.78;;;12.49;100.00
6034;BME280;3045;43.226;27.858;2022-12-18T00:02:41;149193.03;;;12.55;100.00
6034;BME280;3045;43.226;27.858;2022-12-18T00:05:08;149190.47;;;12.54;100.00
6034;BME280;3045;43.226;27.858;2022-12-18T00:07:35;149194.28;;;12.55;100.00
6034;BME280;3045;43.226;27.858;2022-12-18T00:10:04;149195.56;;;12.56;100.00
6034;BME280;3045;43.226;27.858;2022-12-18T00:12:31;149172.75;;;12.47;100.00
6034;BME280;3045;43.226;27.858;2022-12-18T00:14:58;149198.06;;;12.57;100.00
6034;BME280;3045;43.226;27.858;2022-12-18T00:17:25;149182.88;;;12.51;100.00
6034;BME280;3045;43.226;27.858;2022-12-18T00:19:53;149163.91;;;12.43;100.00
6034;BME280;3045;43.226;27.858;2022-12-18T00:22:20;149212.00;;;12.62;100.00
6034;BME280;3045;43.226;27.858;2022-12-18T00:24:47;149218.31;;;12.65;100.00
6034;BME280;3045;43.226;27.858;2022-12-18T00:27:13;149217.09;;;12.64;100.00
6034;BME280;3045;43.226;27.858;2022-12-18T00:29:40;149230.97;;;12.70;100.00
6034;BME280;3045;43.226;27.858;2022-12-18T00:32:07;149199.31;;;12.57;100.00
6034;BME280;3045;43.226;27.858;2022-12-18T00:34:34;149198.06;;;12.57;100.00
6034;BME280;3045;43.226;27.858;2022-12-18T00:37:02;149167.69;;;12.45;100.00
6034;BME280;3045;43.226;27.858;2022-12-18T00:39:29;149162.63;;;12.43;100.00
6034;BME280;3045;43.226;27.858;2022-12-18T00:41:56;149141.13;;;12.34;100.00
6034;BME280;3045;43.226;27.858;2022-12-18T00:44:40;149114.50;;;12.23;100.00
6034;BME280;3045;43.226;27.858;2022-12-18T00:47:07;149106.94;;;12.20;100.00
6034;BME280;3045;43.226;27.858;2022-12-18T00:49:34;149124.63;;;12.27;100.00
6034;BME280;3045;43.226;27.858;2022-12-18T00:52:02;149128.44;;;12.29;100.00
6034;BME280;3045;43.226;27.858;2022-12-18T00:54:29;149101.84;;;12.18;100.00
6034;BME280;3045;43.226;27.858;2022-12-18T00:56:56;149101.84;;;12.18;100.00
6034;BME280;3045;43.226;27.858;2022-12-18T00:59:23;149095.53;;;12.16;100.00
6034;BME280;3045;43.226;27.858;2022-12-18T01:01:50;149096.81;;;12.16;100.00
6034;BME280;3045;43.226;27.858;2022-12-18T01:04:17;149077.84;;;12.09;100.00
6034;BME280;3045;43.226;27.858;2022-12-18T01:06:43;149089.22;;;12.13;100.00
6034;BME280;3045;43.226;27.858;2022-12-18T01:09:12;149079.09;;;12.09;100.00
6034;BME280;3045;43.226;27.858;2022-12-18T01:11:39;149084.16;;;12.11;100.00
6034;BME280;3045;43.226;27.858;2022-12-18T01:14:08;149085.41;;;12.12;100.00
6034;BME280;3045;43.226;27.858;2022-12-18T01:16:35;149087.97;;;12.13;100.00
6034;BME280;3045;43.226;27.858;2022-12-18T01:19:02;149074.03;;;12.07;100.00
6034;BME280;3045;43.226;27.858;2022-12-18T01:21:28;149108.22;;;12.21;100.00
6034;BME280;3045;43.226;27.858;2022-12-18T01:23:56;149106.94;;;12.20;100.00
6034;BME280;3045;43.226;27.858;2022-12-18T01:26:25;149122.09;;;12.26;100.00
6034;BME280;3045;43.226;27.858;2022-12-18T01:28:54;149128.44;;;12.29;100.00
6034;BME280;3045;43.226;27.858;2022-12-18T01:31:23;149087.97;;;12.13;100.00
6034;BME280;3045;43.226;27.858;2022-12-18T01:33:50;149143.63;;;12.35;100.00
6034;BME280;3045;43.226;27.858;2022-12-18T01:36:19;149160.09;;;12.42;100.00
6034;BME280;3045;43.226;27.858;2022-12-18T01:38:47;149165.13;;;12.44;100.00
6034;BME280;3045;43.226;27.858;2022-12-18T01:41:16;149149.97;;;12.38;100.00
6034;BME280;3045;43.226;27.858;2022-12-18T01:43:50;149127.19;;;12.28;100.00
6034;BME280;3045;43.226;27.858;2022-12-18T01:46:20;149132.25;;;12.30;100.00
6034;BME280;3045;43.226;27.858;2022-12-18T01:48:50;149122.09;;;12.26;100.00
6034;BME280;3045;43.226;27.858;2022-12-18T01:51:18;149108.22;;;12.21;100.00
6034;BME280;3045;43.226;27.858;2022-12-18T01:53:46;149084.16;;;12.11;100.00
6034;BME280;3045;43.226;27.858;2022-12-18T01:56:15;149086.69;;;12.12;100.00
6034;BME280;3045;43.226;27.858;2022-12-18T01:58:50;149036.06;;;11.92;100.00
6034;BME280;3045;43.226;27.858;2022-12-18T02:01:20;149037.31;;;11.93;100.00
6034;BME280;3045;43.226;27.858;2022-12-18T02:03:47;149036.06;;;11.92;100.00
6034;BME280;3045;43.226;27.858;2022-12-18T02:06:16;149038.56;;;11.93;100.00
6034;BME280;3045;43.226;27.858;2022-12-18T02:08:54;149077.84;;;12.09;100.00
6034;BME280;3045;43.226;27.858;2022-12-18T02:11:35;149043.66;;;11.95;100.00
6034;BME280;3045;43.226;27.858;2022-12-18T02:14:14;149033.53;;;11.91;100.00
6034;BME280;3045;43.226;27.858;2022-12-18T02:16:46;148987.97;;;11.73;100.00
6034;BME280;3045;43.226;27.858;2022-12-18T02:19:37;148939.88;;;11.54;100.00
6034;BME280;3045;43.226;27.858;2022-12-18T02:22:13;147705.16;;;11.52;100.00
6034;BME280;3045;43.226;27.858;2022-12-18T02:24:51;148592.31;;;11.57;100.00
6034;BME280;3045;43.226;27.858;2022-12-18T02:27:24;148975.25;;;11.68;100.00
6034;BME280;3045;43.226;27.858;2022-12-18T02:29:53;148976.53;;;11.68;100.00
6034;BME280;3045;43.226;27.858;2022-12-18T02:32:25;148982.88;;;11.71;100.00
6034;BME280;3045;43.226;27.858;2022-12-18T02:34:56;149001.91;;;11.78;100.00
6034;BME280;3045;43.226;27.858;2022-12-18T02:37:25;149018.34;;;11.85;100.00
6034;BME280;3045;43.226;27.858;2022-12-18T02:39:56;149015.78;;;11.84;100.00
6034;BME280;3045;43.226;27.858;2022-12-18T02:42:27;149023.41;;;11.87;100.00
6034;BME280;3045;43.226;27.858;2022-12-18T02:44:54;149034.81;;;11.92;100.00
6034;BME280;3045;43.226;27.858;2022-12-18T02:47:23;149010.75;;;11.82;100.00
6034;BME280;3045;43.226;27.858;2022-12-18T02:49:58;148999.38;;;11.77;100.00
6034;BME280;3045;43.226;27.858;2022-12-18T02:52:32;148971.50;;;11.66;100.00
6034;BME280;3045;43.226;27.858;2022-12-18T02:55:13;148965.16;;;11.64;100.00
6034;BME280;3045;43.226;27.858;2022-12-18T02:57:46;148952.50;;;11.59;100.00
6034;BME280;3045;43.226;27.858;2022-12-18T03:00:19;148905.72;;;11.40;100.00
6034;BME280;3045;43.226;27.858;2022-12-18T03:02:51;148898.13;;;11.37;100.00
6034;BME280;3045;43.226;27.858;2022-12-18T03:05:25;148899.34;;;11.37;100.00
6034;BME280;3045;43.226;27.858;2022-12-18T03:07:57;148589.41;;;11.29;100.00
6034;BME280;3045;43.226;27.858;2022-12-18T03:10:29;142495.69;;;11.26;100.00
6034;BME280;3045;43.226;27.858;2022-12-18T03:13:03;139806.91;;;11.14;100.00
6034;BME280;3045;43.226;27.858;2022-12-18T03:15:34;142825.88;;;11.30;100.00
6034;BME280;3045;43.226;27.858;2022-12-18T03:18:05;146231.81;;;11.32;100.00
6034;BME280;3045;43.226;27.858;2022-12-18T03:20:34;145398.47;;;11.32;100.00
6034;BME280;3045;43.226;27.858;2022-12-18T03:23:07;146413.25;;;11.20;100.00
6034;BME280;3045;43.226;27.858;2022-12-18T03:25:38;148922.13;;;11.46;100.00
6034;BME280;3045;43.226;27.858;2022-12-18T03:28:08;148913.28;;;11.43;100.00
6034;BME280;3045;43.226;27.858;2022-12-18T03:30:38;148901.91;;;11.38;100.00
6034;BME280;3045;43.226;27.858;2022-12-18T03:33:10;148396.13;;;11.31;100.00
6034;BME280;3045;43.226;27.858;2022-12-18T03:35:40;146544.38;;;11.46;100.00
6034;BME280;3045;43.226;27.858;2022-12-18T03:38:09;148942.38;;;11.55;100.00
6034;BME280;3045;43.226;27.858;2022-12-18T03:40:56;148943.63;;;11.55;100.00
6034;BME280;3045;43.226;27.858;2022-12-18T03:43:39;148929.75;;;11.50;100.00
6034;BME280;3045;43.226;27.858;2022-12-18T03:46:16;148927.22;;;11.49;100.00
6034;BME280;3045;43.226;27.858;2022-12-18T03:48:53;148919.63;;;11.45;100.00
6034;BME280;3045;43.226;27.858;2022-12-18T03:51:25;148898.13;;;11.37;100.00
6034;BME280;3045;43.226;27.858;2022-12-18T03:53:56;148871.56;;;11.26;100.00
6034;BME280;3045;43.226;27.858;2022-12-18T03:56:28;148886.75;;;11.32;100.00
6034;BME280;3045;43.226;27.858;2022-12-18T03:58:59;148876.63;;;11.28;100.00
6034;BME280;3045;43.226;27.858;2022-12-18T04:01:30;148871.56;;;11.26;100.00
6034;BME280;3045;43.226;27.858;2022-12-18T04:03:59;148908.25;;;11.41;100.00
6034;BME280;3045;43.226;27.858;2022-12-18T04:06:27;148917.09;;;11.44;100.00
6034;BME280;3045;43.226;27.858;2022-12-18T04:08:56;148901.91;;;11.38;100.00
6034;BME280;3045;43.226;27.858;2022-12-18T04:11:24;148910.75;;;11.42;100.00
6034;BME280;3045;43.226;27.858;2022-12-18T04:13:56;148885.47;;;11.32;100.00
6034;BME280;3045;43.226;27.858;2022-12-18T04:16:24;148839.94;;;11.14;100.00
6034;BME280;3045;43.226;27.858;2022-12-18T04:18:51;148886.75;;;11.32;100.00
6034;BME280;3045;43.226;27.858;2022-12-18T04:21:18;148879.13;;;11.29;100.00
6034;BME280;3045;43.226;27.858;2022-12-18T04:23:45;148899.34;;;11.37;100.00
6034;BME280;3045;43.226;27.858;2022-12-18T04:26:12;148889.25;;;11.33;100.00
6034;BME280;3045;43.226;27.858;2022-12-18T04:28:39;148899.34;;;11.37;100.00
6034;BME280;3045;43.226;27.858;2022-12-18T04:31:07;148885.47;;;11.32;100.00
6034;BME280;3045;43.226;27.858;2022-12-18T04:33:34;148863.97;;;11.23;100.00
6034;BME280;3045;43.226;27.858;2022-12-18T04:36:01;148861.44;;;11.22;100.00
6034;BME280;3045;43.226;27.858;2022-12-18T04:38:28;148836.13;;;11.12;100.00
6034;BME280;3045;43.226;27.858;2022-12-18T04:40:55;148826.00;;;11.08;100.00
6034;BME280;3045;43.226;27.858;2022-12-18T04:43:21;148855.13;;;11.20;100.00
6034;BME280;3045;43.226;27.858;2022-12-18T04:45:48;148822.25;;;11.07;100.00
6034;BME280;3045;43.226;27.858;2022-12-18T04:48:16;148790.63;;;10.94;100.00
6034;BME280;3045;43.226;27.858;2022-12-18T04:50:43;148772.91;;;10.87;100.00
6034;BME280;3045;43.226;27.858;2022-12-18T04:53:10;148727.44;;;10.69;100.00
6034;BME280;3045;43.226;27.858;2022-12-18T04:55:37;148757.75;;;10.81;100.00
6034;BME280;3045;43.226;27.858;2022-12-18T04:58:04;148746.38;;;10.76;100.00
6034;BME280;3045;43.226;27.858;2022-12-18T05:00:31;148623.75;;;10.27;100.00
6034;BME280;3045;43.226;27.858;2022-12-18T05:03:00;148681.91;;;10.50;100.00
6034;BME280;3045;43.226;27.858;2022-12-18T05:05:28;148681.91;;;10.50;100.00
6034;BME280;3045;43.226;27.858;2022-12-18T05:07:55;148670.53;;;10.46;100.00
6034;BME280;3045;43.226;27.858;2022-12-18T05:10:22;148650.31;;;10.38;100.00
6034;BME280;3045;43.226;27.858;2022-12-18T05:12:49;148662.94;;;10.43;100.00
6034;BME280;3045;43.226;27.858;2022-12-18T05:15:27;148664.22;;;10.43;100.00
6034;BME280;3045;43.226;27.858;2022-12-18T05:17:54;148654.13;;;10.39;100.00
6034;BME280;3045;43.226;27.858;2022-12-18T05:20:21;148627.56;;;10.29;100.00
6034;BME280;3045;43.226;27.858;2022-12-18T05:22:49;148583.25;;;10.11;100.00
6034;BME280;3045;43.226;27.858;2022-12-18T05:25:17;148526.44;;;9.88;100.00
6034;BME280;3045;43.226;27.858;2022-12-18T05:27:44;148551.69;;;9.98;100.00
6034;BME280;3045;43.226;27.858;2022-12-18T05:30:11;148503.69;;;9.79;100.00
6034;BME280;3045;43.226;27.858;2022-12-18T05:32:39;148502.44;;;9.79;100.00
6034;BME280;3045;43.226;27.858;2022-12-18T05:35:07;148459.47;;;9.61;100.00
6034;BME280;3045;43.226;27.858;2022-12-18T05:37:35;148449.38;;;9.57;100.00
6034;BME280;3045;43.226;27.858;2022-12-18T05:40:04;148426.63;;;9.48;100.00
6034;BME280;3045;43.226;27.858;2022-12-18T05:42:31;148403.91;;;9.39;100.00
6034;BME280;3045;43.226;27.858;2022-12-18T05:44:58;148419.06;;;9.45;100.00
6034;BME280;3045;43.226;27.858;2022-12-18T05:47:26;148408.97;;;9.41;100.00
6034;BME280;3045;43.226;27.858;2022-12-18T05:49:54;148386.22;;;9.32;100.00
6034;BME280;3045;43.226;27.858;2022-12-18T05:52:21;148383.69;;;9.31;100.00
6034;BME280;3045;43.226;27.858;2022-12-18T05:54:47;148392.53;;;9.35;100.00
6034;BME280;3045;43.226;27.858;2022-12-18T05:57:16;148376.13;;;9.28;100.00
6034;BME280;3045;43.226;27.858;2022-12-18T05:59:43;148368.53;;;9.25;100.00
6034;BME280;3045;43.226;27.858;2022-12-18T06:02:10;148348.31;;;9.17;100.00
6034;BME280;3045;43.226;27.858;2022-12-18T06:04:37;148369.78;;;9.26;100.00
6034;BME280;3045;43.226;27.858;2022-12-18T06:07:03;148396.34;;;9.36;100.00
6034;BME280;3045;43.226;27.858;2022-12-18T06:09:30;148412.72;;;9.43;100.00
6034;BME280;3045;43.226;27.858;2022-12-18T06:11:57;148403.91;;;9.39;100.00
6034;BME280;3045;43.226;27.858;2022-12-18T06:14:25;148373.59;;;9.27;100.00
6034;BME280;3045;43.226;27.858;2022-12-18T06:16:52;148366.03;;;9.24;100.00
6034;BME280;3045;43.226;27.858;2022-12-18T06:19:19;148383.69;;;9.31;100.00
6034;BME280;3045;43.226;27.858;2022-12-18T06:21:46;148350.88;;;9.18;100.00
6034;BME280;3045;43.226;27.858;2022-12-18T06:24:15;148349.59;;;9.17;100.00
6034;BME280;3045;43.226;27.858;2022-12-18T06:26:41;148329.41;;;9.09;100.00
6034;BME280;3045;43.226;27.858;2022-12-18T06:29:08;148316.75;;;9.04;100.00
6034;BME280;3045;43.226;27.858;2022-12-18T06:31:37;148282.72;;;8.91;100.00
6034;BME280;3045;43.226;27.858;2022-12-18T06:34:04;148286.47;;;8.92;100.00
6034;BME280;3045;43.226;27.858;2022-12-18T06:36:31;148276.38;;;8.88;100.00
6034;BME280;3045;43.226;27.858;2022-12-18T06:38:58;148270.09;;;8.86;100.00
6034;BME280;3045;43.226;27.858;2022-12-18T06:41:25;148292.81;;;8.95;100.00
6034;BME280;3045;43.226;27.858;2022-12-18T06:43:51;148273.84;;;8.87;100.00
6034;BME280;3045;43.226;27.858;2022-12-18T06:46:19;148283.94;;;8.91;100.00
6034;BME280;3045;43.226;27.858;2022-12-18T06:48:50;148270.09;;;8.86;100.00
6034;BME280;3045;43.226;27.858;2022-12-18T06:51:18;148285.22;;;8.92;100.00
6034;BME280;3045;43.226;27.858;2022-12-18T06:53:46;148275.09;;;8.88;100.00
6034;BME280;3045;43.226;27.858;2022-12-18T06:56:13;148266.28;;;8.84;100.00
6034;BME280;3045;43.226;27.858;2022-12-18T06:58:40;148249.91;;;8.78;100.00
6034;BME280;3045;43.226;27.858;2022-12-18T07:01:09;148222.09;;;8.66;100.00
6034;BME280;3045;43.226;27.858;2022-12-18T07:03:36;148199.38;;;8.57;100.00
6034;BME280;3045;43.226;27.858;2022-12-18T07:06:05;148232.19;;;8.70;100.00
6034;BME280;3045;43.226;27.858;2022-12-18T07:08:32;148220.81;;;8.66;100.00
6034;BME280;3045;43.226;27.858;2022-12-18T07:11:03;148241.06;;;8.74;100.00
6034;BME280;3045;43.226;27.858;2022-12-18T07:13:30;148242.28;;;8.75;100.00
6034;BME280;3045;43.226;27.858;2022-12-18T07:16:03;148242.28;;;8.75;100.00
6034;BME280;3045;43.226;27.858;2022-12-18T07:18:30;148232.19;;;8.70;100.00
6034;BME280;3045;43.226;27.858;2022-12-18T07:20:57;148209.47;;;8.61;100.00
6034;BME280;3045;43.226;27.858;2022-12-18T07:23:25;148194.34;;;8.55;100.00
6034;BME280;3045;43.226;27.858;2022-12-18T07:25:52;148203.19;;;8.59;100.00
6034;BME280;3045;43.226;27.858;2022-12-18T07:28:19;148155.25;;;8.40;100.00
6034;BME280;3045;43.226;27.858;2022-12-18T07:30:45;148171.63;;;8.46;100.00
6034;BME280;3045;43.226;27.858;2022-12-18T07:33:12;148151.44;;;8.38;100.00
6034;BME280;3045;43.226;27.858;2022-12-18T07:35:39;148201.91;;;8.58;100.00
6034;BME280;3045;43.226;27.858;2022-12-18T07:38:06;148159.00;;;8.41;100.00
6034;BME280;3045;43.226;27.858;2022-12-18T07:40:34;148131.25;;;8.30;100.00
6034;BME280;3045;43.226;27.858;2022-12-18T07:43:01;148160.28;;;8.42;100.00
6034;BME280;3045;43.226;27.858;2022-12-18T07:45:28;148121.13;;;8.26;100.00
6034;BME280;3045;43.226;27.858;2022-12-18T07:47:55;148098.41;;;8.17;100.00
6034;BME280;3045;43.226;27.858;2022-12-18T07:50:21;148118.59;;;8.25;100.00
6034;BME280;3045;43.226;27.858;2022-12-18T07:52:49;148103.44;;;8.19;100.00
6034;BME280;3045;43.226;27.858;2022-12-18T07:55:16;148068.13;;;8.05;100.00
6034;BME280;3045;43.226;27.858;2022-12-18T07:57:44;148169.09;;;8.45;100.00
6034;BME280;3045;43.226;27.858;2022-12-18T08:00:12;148161.53;;;8.42;100.00
6034;BME280;3045;43.226;27.858;2022-12-18T08:02:39;148166.59;;;8.44;100.00
6034;BME280;3045;43.226;27.858;2022-12-18T08:05:06;148162.81;;;8.43;100.00
6034;BME280;3045;43.226;27.858;2022-12-18T08:07:33;148183.00;;;8.51;100.00
6034;BME280;3045;43.226;27.858;2022-12-18T08:10:00;148196.88;;;8.56;100.00
6034;BME280;3045;43.226;27.858;2022-12-18T08:12:27;148196.88;;;8.56;100.00
6034;BME280;3045;43.226;27.858;2022-12-18T08:14:55;148196.88;;;8.56;100.00
6034;BME280;3045;43.226;27.858;2022-12-18T08:17:22;148209.47;;;8.61;100.00
6034;BME280;3045;43.226;27.858;2022-12-18T08:19:49;148212.00;;;8.62;100.00
6034;BME280;3045;43.226;27.858;2022-12-18T08:22:16;148227.16;;;8.68;100.00
6034;BME280;3045;43.226;27.858;2022-12-18T08:24:43;148244.81;;;8.76;100.00
6034;BME280;3045;43.226;27.858;2022-12-18T08:27:10;148270.09;;;8.86;100.00
6034;BME280;3045;43.226;27.858;2022-12-18T08:29:37;148212.00;;;8.62;100.00
6034;BME280;3045;43.226;27.858;2022-12-18T08:32:05;148272.63;;;8.87;100.00
6034;BME280;3045;43.226;27.858;2022-12-18T08:34:32;148261.25;;;8.82;100.00
6034;BME280;3045;43.226;27.858;2022-12-18T08:36:59;148234.72;;;8.71;100.00
6034;BME280;3045;43.226;27.858;2022-12-18T08:39:26;148199.38;;;8.57;100.00
6034;BME280;3045;43.226;27.858;2022-12-18T08:41:53;148188.06;;;8.53;100.00
6034;BME280;3045;43.226;27.858;2022-12-18T08:44:37;148206.97;;;8.60;100.00
6034;BME280;3045;43.226;27.858;2022-12-18T08:47:06;148188.06;;;8.53;100.00
6034;BME280;3045;43.226;27.858;2022-12-18T08:49:33;148224.63;;;8.67;100.00
6034;BME280;3045;43.226;27.858;2022-12-18T08:52:01;148206.97;;;8.60;100.00
6034;BME280;3045;43.226;27.858;2022-12-18T08:54:29;148204.44;;;8.59;100.00
6034;BME280;3045;43.226;27.858;2022-12-18T08:56:55;148186.78;;;8.52;100.00
6034;BME280;3045;43.226;27.858;2022-12-18T08:59:22;148191.81;;;8.54;100.00
6034;BME280;3045;43.226;27.858;2022-12-18T09:01:50;148204.44;;;8.59;100.00
6034;BME280;3045;43.226;27.858;2022-12-18T09:04:18;148189.28;;;8.53;100.00
6034;BME280;3045;43.226;27.858;2022-12-18T09:06:45;148224.63;;;8.67;100.00
6034;BME280;3045;43.226;27.858;2022-12-18T09:09:12;148225.91;;;8.68;100.00
6034;BME280;3045;43.226;27.858;2022-12-18T09:11:39;148183.00;;;8.51;100.00
6034;BME280;3045;43.226;27.858;2022-12-18T09:14:06;148195.63;;;8.56;100.00
6034;BME280;3045;43.226;27.858;2022-12-18T09:16:33;148210.72;;;8.62;100.00
6034;BME280;3045;43.226;27.858;2022-12-18T09:19:02;148206.97;;;8.60;100.00
6034;BME280;3045;43.226;27.858;2022-12-18T09:21:32;148230.91;;;8.70;100.00
6034;BME280;3045;43.226;27.858;2022-12-18T09:24:00;148244.81;;;8.76;100.00
6034;BME280;3045;43.226;27.858;2022-12-18T09:26:27;148291.53;;;8.94;100.00
6034;BME280;3045;43.226;27.858;2022-12-18T09:28:54;148309.19;;;9.01;100.00
6034;BME280;3045;43.226;27.858;2022-12-18T09:31:23;148300.38;;;8.98;100.00
6034;BME280;3045;43.226;27.858;2022-12-18T09:33:50;148340.75;;;9.14;100.00
6034;BME280;3045;43.226;27.858;2022-12-18T09:36:18;148355.94;;;9.20;100.00
6034;BME280;3045;43.226;27.858;2022-12-18T09:38:46;148353.41;;;9.19;100.00
6034;BME280;3045;43.226;27.858;2022-12-18T09:41:22;148331.94;;;9.10;100.00
6034;BME280;3045;43.226;27.858;2022-12-18T09:43:57;148320.56;;;9.06;100.00
6034;BME280;3045;43.226;27.858;2022-12-18T09:46:28;148335.75;;;9.12;100.00
6034;BME280;3045;43.226;27.858;2022-12-18T09:48:59;148334.47;;;9.11;100.00
6034;BME280;3045;43.226;27.858;2022-12-18T09:51:32;148345.84;;;9.16;100.00
6034;BME280;3045;43.226;27.858;2022-12-18T09:54:04;148344.56;;;9.15;100.00
6034;BME280;3045;43.226;27.858;2022-12-18T09:56:36;148355.94;;;9.20;100.00
6034;BME280;3045;43.226;27.858;2022-12-18T09:59:05;148374.88;;;9.28;100.00
6034;BME280;3045;43.226;27.858;2022-12-18T10:01:33;148367.31;;;9.25;100.00
6034;BME280;3045;43.226;27.858;2022-12-18T10:04:00;148369.78;;;9.26;100.00
6034;BME280;3045;43.226;27.858;2022-12-18T10:06:31;148358.44;;;9.21;100.00
6034;BME280;3045;43.226;27.858;2022-12-18T10:09:07;148334.47;;;9.11;100.00
6034;BME280;3045;43.226;27.858;2022-12-18T10:11:43;148345.84;;;9.16;100.00
6034;BME280;3045;43.226;27.858;2022-12-18T10:14:20;148325.63;;;9.08;100.00
6034;BME280;3045;43.226;27.858;2022-12-18T10:16:57;148348.31;;;9.17;100.00
6034;BME280;3045;43.226;27.858;2022-12-18T10:19:35;148323.09;;;9.07;100.00
6034;BME280;3045;43.226;27.858;2022-12-18T10:22:12;148371.06;;;9.26;100.00
6034;BME280;3045;43.226;27.858;2022-12-18T10:24:48;148390.00;;;9.34;100.00
6034;BME280;3045;43.226;27.858;2022-12-18T10:27:23;148381.16;;;9.30;100.00
6034;BME280;3045;43.226;27.858;2022-12-18T10:29:50;148420.34;;;9.46;100.00
6034;BME280;3045;43.226;27.858;2022-12-18T10:32:19;148434.19;;;9.51;100.00
6034;BME280;3045;43.226;27.858;2022-12-18T10:34:46;148441.81;;;9.54;100.00
6034;BME280;3045;43.226;27.858;2022-12-18T10:37:16;148444.31;;;9.55;100.00
6034;BME280;3045;43.226;27.858;2022-12-18T10:39:47;148414.00;;;9.43;100.00
6034;BME280;3045;43.226;27.858;2022-12-18T10:42:31;148455.66;;;9.60;100.00
6034;BME280;3045;43.226;27.858;2022-12-18T10:45:01;148434.19;;;9.51;100.00
6034;BME280;3045;43.226;27.858;2022-12-18T10:47:29;148416.53;;;9.44;100.00
6034;BME280;3045;43.226;27.858;2022-12-18T10:49:56;148459.47;;;9.61;100.00
6034;BME280;3045;43.226;27.858;2022-12-18T10:52:25;148464.50;;;9.63;100.00
6034;BME280;3045;43.226;27.858;2022-12-18T10:54:55;148443.03;;;9.55;100.00
6034;BME280;3045;43.226;27.858;2022-12-18T10:57:34;148449.38;;;9.57;100.00
6034;BME280;3045;43.226;27.858;2022-12-18T11:00:21;148431.72;;;9.50;100.00
6034;BME280;3045;43.226;27.858;2022-12-18T11:02:49;148439.28;;;9.53;100.00
6034;BME280;3045;43.226;27.858;2022-12-18T11:05:27;148384.97;;;9.32;100.00
6034;BME280;3045;43.226;27.858;2022-12-18T11:07:55;148410.25;;;9.42;100.00
6034;BME280;3045;43.226;27.858;2022-12-18T11:10:28;148371.06;;;9.26;100.00
6034;BME280;3045;43.226;27.858;2022-12-18T11:12:55;148391.25;;;9.34;100.00
6034;BME280;3045;43.226;27.858;2022-12-18T11:15:26;148400.09;;;9.38;100.00
6034;BME280;3045;43.226;27.858;2022-12-18T11:17:55;148415.25;;;9.44;100.00
6034;BME280;3045;43.226;27.858;2022-12-18T11:20:29;148431.72;;;9.50;100.00
6034;BME280;3045;43.226;27.858;2022-12-18T11:22:59;148431.72;;;9.50;100.00
6034;BME280;3045;43.226;27.858;2022-12-18T11:25:32;148465.78;;;9.64;100.00
6034;BME280;3045;43.226;27.858;2022-12-18T11:28:01;148468.31;;;9.65;100.00
6034;BME280;3045;43.226;27.858;2022-12-18T11:30:29;148434.19;;;9.51;100.00
6034;BME280;3045;43.226;27.858;2022-12-18T11:32:59;148463.28;;;9.63;100.00
6034;BME280;3045;43.226;27.858;2022-12-18T11:35:37;148396.34;;;9.36;100.00
6034;BME280;3045;43.226;27.858;2022-12-18T11:38:20;148387.50;;;9.33;100.00
6034;BME280;3045;43.226;27.858;2022-12-18T11:40:54;148414.00;;;9.43;100.00
6034;BME280;3045;43.226;27.858;2022-12-18T11:43:26;148421.56;;;9.46;100.00
6034;BME280;3045;43.226;27.858;2022-12-18T11:45:59;148402.63;;;9.39;100.00
6034;BME280;3045;43.226;27.858;2022-12-18T11:48:32;148402.63;;;9.39;100.00
6034;BME280;3045;43.226;27.858;2022-12-18T11:51:02;148383.69;;;9.31;100.00
6034;BME280;3045;43.226;27.858;2022-12-18T11:53:30;148383.69;;;9.31;100.00
6034;BME280;3045;43.226;27.858;2022-12-18T11:56:11;148366.03;;;9.24;100.00
6034;BME280;3045;43.226;27.858;2022-12-18T11:58:50;148347.06;;;9.16;100.00
6034;BME280;3045;43.226;27.858;2022-12-18T12:01:30;148366.03;;;9.24;100.00
6034;BME280;3045;43.226;27.858;2022-12-18T12:07:20;148330.66;;;9.10;100.00
6034;BME280;3045;43.226;27.858;2022-12-18T12:09:54;148310.47;;;9.02;100.00
6034;BME280;3045;43.226;27.858;2022-12-18T12:12:34;148360.97;;;9.22;100.00
6034;BME280;3045;43.226;27.858;2022-12-18T12:15:20;148396.34;;;9.36;100.00
6034;BME280;3045;43.226;27.858;2022-12-18T12:17:54;148411.47;;;9.42;100.00
6034;BME280;3045;43.226;27.858;2022-12-18T12:20:33;148438.00;;;9.53;100.00
6034;BME280;3045;43.226;27.858;2022-12-18T12:23:12;148424.09;;;9.47;100.00
6034;BME280;3045;43.226;27.858;2022-12-18T12:25:47;148416.53;;;9.44;100.00
6034;BME280;3045;43.226;27.858;2022-12-18T12:28:27;148383.69;;;9.31;100.00
6034;BME280;3045;43.226;27.858;2022-12-18T12:31:04;148371.06;;;9.26;100.00
6034;BME280;3045;43.226;27.858;2022-12-18T12:33:39;148292.81;;;8.95;100.00
6034;BME280;3045;43.226;27.858;2022-12-18T12:36:18;148353.41;;;9.19;100.00
6034;BME280;3045;43.226;27.858;2022-12-18T12:38:50;148334.47;;;9.11;100.00
6034;BME280;3045;43.226;27.858;2022-12-18T12:41:20;148277.66;;;8.89;100.00
6034;BME280;3045;43.226;27.858;2022-12-18T12:44:09;148295.31;;;8.96;100.00
6034;BME280;3045;43.226;27.858;2022-12-18T12:46:41;148283.94;;;8.91;100.00
6034;BME280;3045;43.226;27.858;2022-12-18T12:49:12;148282.72;;;8.91;100.00
6034;BME280;3045;43.226;27.858;2022-12-18T12:51:43;148266.28;;;8.84;100.00
6034;BME280;3045;43.226;27.858;2022-12-18T12:54:15;148305.41;;;9.00;100.00
6034;BME280;3045;43.226;27.858;2022-12-18T12:56:48;148299.09;;;8.97;100.00
6034;BME280;3045;43.226;27.858;2022-12-18T12:59:23;148289.00;;;8.93;100.00
6034;BME280;3045;43.226;27.858;2022-12-18T13:02:01;148301.66;;;8.98;100.00
6034;BME280;3045;43.226;27.858;2022-12-18T13:04:35;148267.56;;;8.85;100.00
6034;BME280;3045;43.226;27.858;2022-12-18T13:07:10;148232.19;;;8.70;100.00
6034;BME280;3045;43.226;27.858;2022-12-18T13:10:22;148241.06;;;8.74;100.00
6034;BME280;3045;43.226;27.858;2022-12-18T13:12:54;148224.63;;;8.67;100.00